sensor_id;sensor_type;location;lat;lon;timestamp;P1;durP1;ratioP1;P2;durP2;ratioP2
25419;SDS011;13354;48.174;11.566;2023-02-01T00:01:20;5.10;;;2.88;;
25419;SDS011;13354;48.174;11.566;2023-02-01T00:03:45;5.05;;;3.30;;
25419;SDS011;13354;48.174;11.566;2023-02-01T00:06:11;6.88;;;3.60;;
25419;SDS011;13354;48.174;11.566;2023-02-01T00:08:36;3.50;;;2.88;;
25419;SDS011;13354;48.174;11.566;2023-02-01T00:11:03;3.53;;;3.00;;
25419;SDS011;13354;48.174;11.566;2023-02-01T00:13:31;4.35;;;2.95;;
25419;SDS011;13354;48.174;11.566;2023-02-01T00:16:30;6.82;;;3.45;;
25419;SDS011;13354;48.174;11.566;2023-02-01T00:18:51;5.03;;;3.28;;
25419;SDS011;13354;48.174;11.566;2023-02-01T00:21:21;5.07;;;3.40;;
25419;SDS011;13354;48.174;11.566;2023-02-01T00:23:47;4.55;;;3.20;;
25419;SDS011;13354;48.174;11.566;2023-02-01T00:26:23;4.78;;;3.00;;
25419;SDS011;13354;48.174;11.566;2023-02-01T00:28:55;6.35;;;3.55;;
25419;SDS011;13354;48.174;11.566;2023-02-01T00:31:20;5.40;;;2.95;;
25419;SDS011;13354;48.174;11.566;2023-02-01T00:33:49;4.93;;;3.45;;
25419;SDS011;13354;48.174;11.566;2023-02-01T00:36:14;4.80;;;3.22;;
25419;SDS011;13354;48.174;11.566;2023-02-01T00:38:40;4.85;;;3.35;;
25419;SDS011;13354;48.174;11.566;2023-02-01T00:41:27;4.40;;;3.05;;
25419;SDS011;13354;48.174;11.566;2023-02-01T00:43:52;6.15;;;3.28;;
25419;SDS011;13354;48.174;11.566;2023-02-01T00:46:17;4.43;;;2.88;;
25419;SDS011;13354;48.174;11.566;2023-02-01T00:48:44;4.65;;;3.20;;
25419;SDS011;13354;48.174;11.566;2023-02-01T00:51:11;3.72;;;3.00;;
25419;SDS011;13354;48.174;11.566;2023-02-01T00:53:38;5.97;;;3.42;;
25419;SDS011;13354;48.174;11.566;2023-02-01T00:56:03;4.60;;;3.45;;
25419;SDS011;13354;48.174;11.566;2023-02-01T00:58:30;4.60;;;3.17;;
25419;SDS011;13354;48.174;11.566;2023-02-01T01:03:30;4.45;;;3.35;;
25419;SDS011;13354;48.174;11.566;2023-02-01T01:05:58;6.22;;;3.97;;
25419;SDS011;13354;48.174;11.566;2023-02-01T01:08:25;5.20;;;3.83;;
25419;SDS011;13354;48.174;11.566;2023-02-01T01:10:50;8.20;;;3.90;;
25419;SDS011;13354;48.174;11.566;2023-02-01T01:13:16;4.88;;;3.50;;
25419;SDS011;13354;48.174;11.566;2023-02-01T01:15:41;5.35;;;3.70;;
25419;SDS011;13354;48.174;11.566;2023-02-01T01:18:07;4.95;;;4.03;;
25419;SDS011;13354;48.174;11.566;2023-02-01T01:20:37;7.13;;;4.35;;
25419;SDS011;13354;48.174;11.566;2023-02-01T01:23:04;5.18;;;3.83;;
25419;SDS011;13354;48.174;11.566;2023-02-01T01:25:30;5.20;;;3.83;;
25419;SDS011;13354;48.174;11.566;2023-02-01T01:27:55;5.40;;;4.13;;
25419;SDS011;13354;48.174;11.566;2023-02-01T01:30:21;5.78;;;4.03;;
25419;SDS011;13354;48.174;11.566;2023-02-01T01:32:46;5.22;;;4.18;;
25419;SDS011;13354;48.174;11.566;2023-02-01T01:35:12;6.65;;;4.22;;
25419;SDS011;13354;48.174;11.566;2023-02-01T01:37:37;6.05;;;4.35;;
25419;SDS011;13354;48.174;11.566;2023-02-01T01:40:03;5.00;;;4.20;;
25419;SDS011;13354;48.174;11.566;2023-02-01T01:42:30;5.75;;;4.50;;
25419;SDS011;13354;48.174;11.566;2023-02-01T01:47:25;11.30;;;5.07;;
25419;SDS011;13354;48.174;11.566;2023-02-01T01:49:56;6.97;;;4.97;;
25419;SDS011;13354;48.174;11.566;2023-02-01T01:52:21;8.48;;;5.05;;
25419;SDS011;13354;48.174;11.566;2023-02-01T01:54:48;8.68;;;5.43;;
25419;SDS011;13354;48.174;11.566;2023-02-01T01:57:17;7.25;;;5.20;;
25419;SDS011;13354;48.174;11.566;2023-02-01T01:59:47;6.90;;;5.03;;
25419;SDS011;13354;48.174;11.566;2023-02-01T02:02:18;8.90;;;4.80;;
25419;SDS011;13354;48.174;11.566;2023-02-01T02:04:43;7.97;;;5.60;;
25419;SDS011;13354;48.174;11.566;2023-02-01T02:07:10;9.43;;;6.15;;
25419;SDS011;13354;48.174;11.566;2023-02-01T02:09:40;7.75;;;5.72;;
25419;SDS011;13354;48.174;11.566;2023-02-01T02:12:07;7.53;;;5.60;;
25419;SDS011;13354;48.174;11.566;2023-02-01T02:14:33;8.10;;;5.68;;
25419;SDS011;13354;48.174;11.566;2023-02-01T02:28:12;8.32;;;6.60;;
25419;SDS011;13354;48.174;11.566;2023-02-01T02:30:58;7.88;;;6.05;;
25419;SDS011;13354;48.174;11.566;2023-02-01T02:39:08;9.60;;;6.32;;
25419;SDS011;13354;48.174;11.566;2023-02-01T02:41:54;7.03;;;5.40;;
25419;SDS011;13354;48.174;11.566;2023-02-01T02:45:07;6.72;;;5.22;;
25419;SDS011;13354;48.174;11.566;2023-02-01T02:48:03;6.75;;;5.35;;
25419;SDS011;13354;48.174;11.566;2023-02-01T02:50:45;7.32;;;5.15;;
25419;SDS011;13354;48.174;11.566;2023-02-01T02:53:37;6.60;;;4.75;;
25419;SDS011;13354;48.174;11.566;2023-02-01T02:56:29;8.60;;;5.70;;
25419;SDS011;13354;48.174;11.566;2023-02-01T03:02:00;7.75;;;5.53;;
25419;SDS011;13354;48.174;11.566;2023-02-01T03:04:44;8.35;;;5.60;;
25419;SDS011;13354;48.174;11.566;2023-02-01T03:07:13;7.32;;;5.15;;
25419;SDS011;13354;48.174;11.566;2023-02-01T03:09:41;8.77;;;4.97;;
25419;SDS011;13354;48.174;11.566;2023-02-01T03:12:10;6.90;;;5.25;;
25419;SDS011;13354;48.174;11.566;2023-02-01T03:15:00;6.45;;;5.18;;
25419;SDS011;13354;48.174;11.566;2023-02-01T03:17:34;7.53;;;4.70;;
25419;SDS011;13354;48.174;11.566;2023-02-01T03:20:03;6.57;;;4.90;;
25419;SDS011;13354;48.174;11.566;2023-02-01T03:22:30;5.47;;;4.50;;
25419;SDS011;13354;48.174;11.566;2023-02-01T03:25:06;7.25;;;4.53;;
25419;SDS011;13354;48.174;11.566;2023-02-01T03:27:40;5.88;;;4.80;;
25419;SDS011;13354;48.174;11.566;2023-02-01T03:32:47;7.40;;;4.53;;
25419;SDS011;13354;48.174;11.566;2023-02-01T03:41:08;4.43;;;3.42;;
25419;SDS011;13354;48.174;11.566;2023-02-01T03:44:00;5.45;;;3.78;;
25419;SDS011;13354;48.174;11.566;2023-02-01T03:46:35;6.28;;;4.63;;
25419;SDS011;13354;48.174;11.566;2023-02-01T03:49:05;6.65;;;4.35;;
25419;SDS011;13354;48.174;11.566;2023-02-01T03:51:35;6.10;;;4.55;;
25419;SDS011;13354;48.174;11.566;2023-02-01T03:54:03;6.32;;;3.97;;
25419;SDS011;13354;48.174;11.566;2023-02-01T03:56:31;5.80;;;3.80;;
25419;SDS011;13354;48.174;11.566;2023-02-01T03:59:01;5.78;;;4.30;;
25419;SDS011;13354;48.174;11.566;2023-02-01T04:01:28;5.50;;;4.05;;
25419;SDS011;13354;48.174;11.566;2023-02-01T04:03:54;4.30;;;3.80;;
25419;SDS011;13354;48.174;11.566;2023-02-01T04:06:20;4.65;;;3.97;;
25419;SDS011;13354;48.174;11.566;2023-02-01T04:08:46;4.60;;;4.00;;
25419;SDS011;13354;48.174;11.566;2023-02-01T04:11:11;7.10;;;3.97;;
25419;SDS011;13354;48.174;11.566;2023-02-01T04:13:37;4.72;;;3.65;;
25419;SDS011;13354;48.174;11.566;2023-02-01T04:16:02;6.10;;;4.18;;
25419;SDS011;13354;48.174;11.566;2023-02-01T04:18:28;4.57;;;3.53;;
25419;SDS011;13354;48.174;11.566;2023-02-01T04:20:53;6.32;;;4.30;;
25419;SDS011;13354;48.174;11.566;2023-02-01T04:23:19;6.10;;;4.40;;
25419;SDS011;13354;48.174;11.566;2023-02-01T04:25:45;8.20;;;4.13;;
25419;SDS011;13354;48.174;11.566;2023-02-01T04:28:10;5.90;;;4.55;;
25419;SDS011;13354;48.174;11.566;2023-02-01T04:30:36;6.20;;;4.78;;
25419;SDS011;13354;48.174;11.566;2023-02-01T04:33:01;5.78;;;4.13;;
25419;SDS011;13354;48.174;11.566;2023-02-01T04:35:30;6.28;;;4.18;;
25419;SDS011;13354;48.174;11.566;2023-02-01T04:37:55;5.88;;;4.18;;
25419;SDS011;13354;48.174;11.566;2023-02-01T04:40:20;7.55;;;4.45;;
25419;SDS011;13354;48.174;11.566;2023-02-01T04:42:46;6.88;;;4.95;;
25419;SDS011;13354;48.174;11.566;2023-02-01T04:45:11;5.40;;;4.28;;
25419;SDS011;13354;48.174;11.566;2023-02-01T04:47:37;7.28;;;4.18;;
25419;SDS011;13354;48.174;11.566;2023-02-01T04:50:02;6.50;;;4.65;;
25419;SDS011;13354;48.174;11.566;2023-02-01T04:52:28;6.50;;;4.45;;
25419;SDS011;13354;48.174;11.566;2023-02-01T04:54:53;6.60;;;4.35;;
25419;SDS011;13354;48.174;11.566;2023-02-01T04:57:22;5.75;;;4.18;;
25419;SDS011;13354;48.174;11.566;2023-02-01T04:59:47;5.93;;;4.63;;
25419;SDS011;13354;48.174;11.566;2023-02-01T05:02:12;6.68;;;4.80;;
25419;SDS011;13354;48.174;11.566;2023-02-01T05:04:38;6.43;;;4.60;;
25419;SDS011;13354;48.174;11.566;2023-02-01T05:07:03;6.10;;;4.65;;
25419;SDS011;13354;48.174;11.566;2023-02-01T05:09:29;6.82;;;4.85;;
25419;SDS011;13354;48.174;11.566;2023-02-01T05:11:54;6.53;;;4.65;;
25419;SDS011;13354;48.174;11.566;2023-02-01T05:14:38;6.53;;;5.07;;
25419;SDS011;13354;48.174;11.566;2023-02-01T05:17:03;6.85;;;4.80;;
25419;SDS011;13354;48.174;11.566;2023-02-01T05:19:28;9.43;;;5.05;;
25419;SDS011;13354;48.174;11.566;2023-02-01T05:21:53;7.80;;;4.68;;
25419;SDS011;13354;48.174;11.566;2023-02-01T05:24:19;6.32;;;4.60;;
25419;SDS011;13354;48.174;11.566;2023-02-01T05:26:45;9.20;;;5.05;;
25419;SDS011;13354;48.174;11.566;2023-02-01T05:29:12;7.95;;;5.80;;
25419;SDS011;13354;48.174;11.566;2023-02-01T05:31:38;7.18;;;4.82;;
25419;SDS011;13354;48.174;11.566;2023-02-01T05:34:04;6.20;;;4.95;;
25419;SDS011;13354;48.174;11.566;2023-02-01T05:36:30;6.63;;;5.28;;
25419;SDS011;13354;48.174;11.566;2023-02-01T05:38:55;5.95;;;5.30;;
25419;SDS011;13354;48.174;11.566;2023-02-01T05:41:21;6.65;;;4.90;;
25419;SDS011;13354;48.174;11.566;2023-02-01T05:43:46;7.70;;;5.00;;
25419;SDS011;13354;48.174;11.566;2023-02-01T05:46:11;6.00;;;4.90;;
25419;SDS011;13354;48.174;11.566;2023-02-01T05:48:40;7.22;;;5.20;;
25419;SDS011;13354;48.174;11.566;2023-02-01T05:51:06;7.43;;;5.30;;
25419;SDS011;13354;48.174;11.566;2023-02-01T05:53:32;9.30;;;5.25;;
25419;SDS011;13354;48.174;11.566;2023-02-01T05:55:58;9.68;;;5.00;;
25419;SDS011;13354;48.174;11.566;2023-02-01T05:58:23;8.15;;;5.18;;
25419;SDS011;13354;48.174;11.566;2023-02-01T06:00:48;5.47;;;4.78;;
25419;SDS011;13354;48.174;11.566;2023-02-01T06:03:14;6.97;;;5.53;;
25419;SDS011;13354;48.174;11.566;2023-02-01T06:05:39;7.70;;;5.05;;
25419;SDS011;13354;48.174;11.566;2023-02-01T06:08:05;6.88;;;5.22;;
25419;SDS011;13354;48.174;11.566;2023-02-01T06:10:32;6.97;;;4.93;;
25419;SDS011;13354;48.174;11.566;2023-02-01T06:12:58;5.18;;;4.47;;
25419;SDS011;13354;48.174;11.566;2023-02-01T06:15:23;6.88;;;5.00;;
25419;SDS011;13354;48.174;11.566;2023-02-01T06:17:49;8.07;;;5.50;;
25419;SDS011;13354;48.174;11.566;2023-02-01T06:20:14;8.35;;;5.20;;
25419;SDS011;13354;48.174;11.566;2023-02-01T06:22:40;7.95;;;5.32;;
25419;SDS011;13354;48.174;11.566;2023-02-01T06:25:07;7.47;;;4.60;;
25419;SDS011;13354;48.174;11.566;2023-02-01T06:27:33;7.93;;;5.43;;
25419;SDS011;13354;48.174;11.566;2023-02-01T06:29:59;6.32;;;4.70;;
25419;SDS011;13354;48.174;11.566;2023-02-01T06:32:24;7.55;;;5.50;;
25419;SDS011;13354;48.174;11.566;2023-02-01T06:34:50;8.50;;;4.47;;
25419;SDS011;13354;48.174;11.566;2023-02-01T06:37:17;5.40;;;4.78;;
25419;SDS011;13354;48.174;11.566;2023-02-01T06:39:43;7.15;;;5.30;;
25419;SDS011;13354;48.174;11.566;2023-02-01T06:42:08;7.15;;;5.28;;
25419;SDS011;13354;48.174;11.566;2023-02-01T06:44:33;7.00;;;4.75;;
25419;SDS011;13354;48.174;11.566;2023-02-01T06:46:59;6.57;;;4.82;;
25419;SDS011;13354;48.174;11.566;2023-02-01T06:49:24;7.80;;;5.13;;
25419;SDS011;13354;48.174;11.566;2023-02-01T06:51:49;5.70;;;4.43;;
25419;SDS011;13354;48.174;11.566;2023-02-01T06:54:15;6.05;;;4.45;;
25419;SDS011;13354;48.174;11.566;2023-02-01T06:56:40;4.47;;;3.90;;
25419;SDS011;13354;48.174;11.566;2023-02-01T06:59:06;5.53;;;4.75;;
25419;SDS011;13354;48.174;11.566;2023-02-01T07:01:32;6.70;;;4.65;;
25419;SDS011;13354;48.174;11.566;2023-02-01T07:03:58;5.55;;;4.57;;
25419;SDS011;13354;48.174;11.566;2023-02-01T07:06:23;5.07;;;4.55;;
25419;SDS011;13354;48.174;11.566;2023-02-01T07:08:49;4.40;;;3.28;;
25419;SDS011;13354;48.174;11.566;2023-02-01T07:11:15;6.35;;;4.07;;
25419;SDS011;13354;48.174;11.566;2023-02-01T07:13:41;6.03;;;4.60;;
25419;SDS011;13354;48.174;11.566;2023-02-01T07:16:09;5.95;;;4.20;;
25419;SDS011;13354;48.174;11.566;2023-02-01T07:18:36;5.80;;;4.40;;
25419;SDS011;13354;48.174;11.566;2023-02-01T07:21:02;6.15;;;4.65;;
25419;SDS011;13354;48.174;11.566;2023-02-01T07:23:27;7.00;;;4.38;;
25419;SDS011;13354;48.174;11.566;2023-02-01T07:25:57;5.57;;;4.18;;
25419;SDS011;13354;48.174;11.566;2023-02-01T07:28:23;6.05;;;4.25;;
25419;SDS011;13354;48.174;11.566;2023-02-01T07:30:49;4.70;;;3.63;;
25419;SDS011;13354;48.174;11.566;2023-02-01T07:33:22;4.63;;;3.20;;
25419;SDS011;13354;48.174;11.566;2023-02-01T07:35:49;3.23;;;2.93;;
25419;SDS011;13354;48.174;11.566;2023-02-01T07:38:15;4.80;;;3.53;;
25419;SDS011;13354;48.174;11.566;2023-02-01T07:40:41;4.80;;;3.67;;
25419;SDS011;13354;48.174;11.566;2023-02-01T07:43:06;6.20;;;3.63;;
25419;SDS011;13354;48.174;11.566;2023-02-01T07:45:33;7.03;;;3.60;;
25419;SDS011;13354;48.174;11.566;2023-02-01T07:47:59;5.05;;;3.08;;
25419;SDS011;13354;48.174;11.566;2023-02-01T07:50:24;3.60;;;2.88;;
25419;SDS011;13354;48.174;11.566;2023-02-01T07:52:49;6.07;;;3.60;;
25419;SDS011;13354;48.174;11.566;2023-02-01T07:55:15;6.53;;;3.25;;
25419;SDS011;13354;48.174;11.566;2023-02-01T07:57:40;6.80;;;2.92;;
25419;SDS011;13354;48.174;11.566;2023-02-01T08:00:06;5.07;;;3.08;;
25419;SDS011;13354;48.174;11.566;2023-02-01T08:02:51;3.92;;;3.00;;
25419;SDS011;13354;48.174;11.566;2023-02-01T08:05:16;3.85;;;3.10;;
25419;SDS011;13354;48.174;11.566;2023-02-01T08:07:41;5.18;;;3.30;;
25419;SDS011;13354;48.174;11.566;2023-02-01T08:10:07;6.80;;;3.38;;
25419;SDS011;13354;48.174;11.566;2023-02-01T08:12:35;4.07;;;3.00;;
25419;SDS011;13354;48.174;11.566;2023-02-01T08:15:01;4.00;;;2.90;;
25419;SDS011;13354;48.174;11.566;2023-02-01T08:17:27;3.00;;;2.53;;
25419;SDS011;13354;48.174;11.566;2023-02-01T08:19:53;3.63;;;2.67;;
25419;SDS011;13354;48.174;11.566;2023-02-01T08:22:18;2.75;;;2.30;;
25419;SDS011;13354;48.174;11.566;2023-02-01T08:24:44;5.45;;;3.40;;
25419;SDS011;13354;48.174;11.566;2023-02-01T08:27:12;4.53;;;3.03;;
25419;SDS011;13354;48.174;11.566;2023-02-01T08:29:37;3.72;;;2.80;;
25419;SDS011;13354;48.174;11.566;2023-02-01T08:32:03;3.83;;;2.38;;
25419;SDS011;13354;48.174;11.566;2023-02-01T08:34:28;3.35;;;2.75;;
25419;SDS011;13354;48.174;11.566;2023-02-01T08:36:54;4.05;;;2.80;;
25419;SDS011;13354;48.174;11.566;2023-02-01T08:39:22;2.95;;;2.45;;
25419;SDS011;13354;48.174;11.566;2023-02-01T08:41:48;3.75;;;2.78;;
25419;SDS011;13354;48.174;11.566;2023-02-01T08:44:33;2.28;;;2.05;;
25419;SDS011;13354;48.174;11.566;2023-02-01T08:46:58;3.75;;;2.65;;
25419;SDS011;13354;48.174;11.566;2023-02-01T08:49:23;3.72;;;2.45;;
25419;SDS011;13354;48.174;11.566;2023-02-01T08:51:49;6.65;;;2.67;;
25419;SDS011;13354;48.174;11.566;2023-02-01T08:54:14;3.35;;;2.28;;
25419;SDS011;13354;48.174;11.566;2023-02-01T08:56:39;3.72;;;2.80;;
25419;SDS011;13354;48.174;11.566;2023-02-01T08:59:05;4.32;;;2.95;;
25419;SDS011;13354;48.174;11.566;2023-02-01T09:01:30;6.53;;;2.80;;
25419;SDS011;13354;48.174;11.566;2023-02-01T09:03:55;4.55;;;2.90;;
25419;SDS011;13354;48.174;11.566;2023-02-01T09:06:21;3.80;;;2.92;;
25419;SDS011;13354;48.174;11.566;2023-02-01T09:08:46;5.93;;;2.72;;
25419;SDS011;13354;48.174;11.566;2023-02-01T09:11:13;3.40;;;2.63;;
25419;SDS011;13354;48.174;11.566;2023-02-01T09:13:41;5.00;;;2.95;;
25419;SDS011;13354;48.174;11.566;2023-02-01T09:16:07;4.75;;;3.03;;
25419;SDS011;13354;48.174;11.566;2023-02-01T09:18:33;4.05;;;2.47;;
25419;SDS011;13354;48.174;11.566;2023-02-01T09:21:03;4.50;;;2.65;;
25419;SDS011;13354;48.174;11.566;2023-02-01T09:23:29;5.88;;;2.75;;
25419;SDS011;13354;48.174;11.566;2023-02-01T09:25:58;3.70;;;2.90;;
25419;SDS011;13354;48.174;11.566;2023-02-01T09:28:24;4.97;;;2.83;;
25419;SDS011;13354;48.174;11.566;2023-02-01T09:30:49;4.78;;;2.38;;
25419;SDS011;13354;48.174;11.566;2023-02-01T09:33:19;3.45;;;2.25;;
25419;SDS011;13354;48.174;11.566;2023-02-01T09:35:46;5.25;;;2.45;;
25419;SDS011;13354;48.174;11.566;2023-02-01T09:38:12;3.00;;;2.28;;
25419;SDS011;13354;48.174;11.566;2023-02-01T09:40:39;2.83;;;2.50;;
25419;SDS011;13354;48.174;11.566;2023-02-01T09:48:20;3.78;;;2.33;;
25419;SDS011;13354;48.174;11.566;2023-02-01T09:50:56;4.93;;;2.30;;
25419;SDS011;13354;48.174;11.566;2023-02-01T09:56:06;8.00;;;2.55;;
25419;SDS011;13354;48.174;11.566;2023-02-01T09:58:44;4.07;;;2.38;;
25419;SDS011;13354;48.174;11.566;2023-02-01T10:01:23;3.85;;;2.42;;
25419;SDS011;13354;48.174;11.566;2023-02-01T10:03:51;4.35;;;2.80;;
25419;SDS011;13354;48.174;11.566;2023-02-01T10:06:33;8.65;;;2.40;;
25419;SDS011;13354;48.174;11.566;2023-02-01T10:09:10;4.20;;;2.63;;
25419;SDS011;13354;48.174;11.566;2023-02-01T10:19:44;3.22;;;2.25;;
25419;SDS011;13354;48.174;11.566;2023-02-01T10:27:33;4.07;;;2.50;;
25419;SDS011;13354;48.174;11.566;2023-02-01T10:33:01;6.13;;;2.42;;
25419;SDS011;13354;48.174;11.566;2023-02-01T10:35:39;4.30;;;2.72;;
25419;SDS011;13354;48.174;11.566;2023-02-01T10:38:08;6.47;;;2.75;;
25419;SDS011;13354;48.174;11.566;2023-02-01T10:40:42;4.85;;;2.70;;
25419;SDS011;13354;48.174;11.566;2023-02-01T10:43:08;5.57;;;2.65;;
25419;SDS011;13354;48.174;11.566;2023-02-01T10:45:34;3.30;;;2.70;;
25419;SDS011;13354;48.174;11.566;2023-02-01T10:48:00;2.70;;;2.40;;
25419;SDS011;13354;48.174;11.566;2023-02-01T10:50:38;5.50;;;2.25;;
25419;SDS011;13354;48.174;11.566;2023-02-01T10:53:28;4.03;;;2.70;;
25419;SDS011;13354;48.174;11.566;2023-02-01T10:56:05;2.92;;;2.45;;
25419;SDS011;13354;48.174;11.566;2023-02-01T10:58:32;5.97;;;2.78;;
25419;SDS011;13354;48.174;11.566;2023-02-01T11:09:38;5.22;;;2.47;;
25419;SDS011;13354;48.174;11.566;2023-02-01T11:14:13;7.10;;;3.50;;
25419;SDS011;13354;48.174;11.566;2023-02-01T11:17:00;5.28;;;2.88;;
25419;SDS011;13354;48.174;11.566;2023-02-01T11:19:45;5.05;;;2.63;;
25419;SDS011;13354;48.174;11.566;2023-02-01T11:22:11;3.15;;;2.67;;
25419;SDS011;13354;48.174;11.566;2023-02-01T11:24:38;5.55;;;3.30;;
25419;SDS011;13354;48.174;11.566;2023-02-01T11:27:13;3.80;;;2.80;;
25419;SDS011;13354;48.174;11.566;2023-02-01T11:29:42;6.22;;;3.47;;
25419;SDS011;13354;48.174;11.566;2023-02-01T11:32:10;4.72;;;2.70;;
25419;SDS011;13354;48.174;11.566;2023-02-01T11:34:39;5.05;;;2.70;;
25419;SDS011;13354;48.174;11.566;2023-02-01T11:37:29;5.00;;;2.92;;
25419;SDS011;13354;48.174;11.566;2023-02-01T11:42:52;3.70;;;3.00;;
25419;SDS011;13354;48.174;11.566;2023-02-01T11:47:56;7.50;;;3.35;;
25419;SDS011;13354;48.174;11.566;2023-02-01T12:04:44;5.53;;;4.05;;
25419;SDS011;13354;48.174;11.566;2023-02-01T12:07:42;5.45;;;3.50;;
25419;SDS011;13354;48.174;11.566;2023-02-01T12:16:31;6.05;;;3.78;;
25419;SDS011;13354;48.174;11.566;2023-02-01T12:38:00;10.20;;;3.70;;
25419;SDS011;13354;48.174;11.566;2023-02-01T12:43:09;11.35;;;3.85;;
25419;SDS011;13354;48.174;11.566;2023-02-01T12:45:47;8.18;;;3.08;;
25419;SDS011;13354;48.174;11.566;2023-02-01T12:51:20;7.72;;;3.40;;
25419;SDS011;13354;48.174;11.566;2023-02-01T12:53:59;7.72;;;3.20;;
25419;SDS011;13354;48.174;11.566;2023-02-01T12:59:20;8.50;;;3.58;;
25419;SDS011;13354;48.174;11.566;2023-02-01T13:02:04;5.82;;;3.00;;
25419;SDS011;13354;48.174;11.566;2023-02-01T13:04:48;4.50;;;2.70;;
25419;SDS011;13354;48.174;11.566;2023-02-01T13:07:25;7.72;;;3.08;;
25419;SDS011;13354;48.174;11.566;2023-02-01T13:13:13;7.07;;;2.67;;
25419;SDS011;13354;48.174;11.566;2023-02-01T13:18:32;6.20;;;2.55;;
25419;SDS011;13354;48.174;11.566;2023-02-01T13:21:12;2.65;;;2.28;;
25419;SDS011;13354;48.174;11.566;2023-02-01T13:23:42;4.97;;;2.60;;
25419;SDS011;13354;48.174;11.566;2023-02-01T13:26:11;6.65;;;2.90;;
25419;SDS011;13354;48.174;11.566;2023-02-01T13:41:42;5.53;;;3.00;;
25419;SDS011;13354;48.174;11.566;2023-02-01T13:44:20;3.95;;;2.88;;
25419;SDS011;13354;48.174;11.566;2023-02-01T13:46:54;5.20;;;3.10;;
25419;SDS011;13354;48.174;11.566;2023-02-01T13:49:24;6.63;;;2.83;;
25419;SDS011;13354;48.174;11.566;2023-02-01T13:51:53;4.57;;;3.10;;
25419;SDS011;13354;48.174;11.566;2023-02-01T13:54:31;7.53;;;3.17;;
25419;SDS011;13354;48.174;11.566;2023-02-01T13:57:00;6.45;;;3.10;;
25419;SDS011;13354;48.174;11.566;2023-02-01T14:05:03;8.57;;;5.95;;
25419;SDS011;13354;48.174;11.566;2023-02-01T14:07:32;4.18;;;3.05;;
25419;SDS011;13354;48.174;11.566;2023-02-01T14:09:58;5.38;;;3.13;;
25419;SDS011;13354;48.174;11.566;2023-02-01T14:15:45;6.13;;;2.90;;
25419;SDS011;13354;48.174;11.566;2023-02-01T14:18:29;3.85;;;2.90;;
25419;SDS011;13354;48.174;11.566;2023-02-01T14:21:27;4.78;;;2.58;;
25419;SDS011;13354;48.174;11.566;2023-02-01T14:26:40;6.70;;;3.00;;
25419;SDS011;13354;48.174;11.566;2023-02-01T14:36:54;7.70;;;2.70;;
25419;SDS011;13354;48.174;11.566;2023-02-01T14:39:27;4.85;;;2.75;;
25419;SDS011;13354;48.174;11.566;2023-02-01T14:42:13;6.30;;;2.80;;
25419;SDS011;13354;48.174;11.566;2023-02-01T14:44:48;9.55;;;2.90;;
25419;SDS011;13354;48.174;11.566;2023-02-01T14:50:08;6.03;;;2.40;;
25419;SDS011;13354;48.174;11.566;2023-02-01T14:52:37;9.45;;;2.45;;
25419;SDS011;13354;48.174;11.566;2023-02-01T14:55:09;5.97;;;2.90;;
25419;SDS011;13354;48.174;11.566;2023-02-01T14:57:40;5.68;;;2.53;;
25419;SDS011;13354;48.174;11.566;2023-02-01T15:02:45;5.93;;;2.40;;
25419;SDS011;13354;48.174;11.566;2023-02-01T15:05:50;9.27;;;2.67;;
25419;SDS011;13354;48.174;11.566;2023-02-01T15:08:10;6.25;;;2.58;;
25419;SDS011;13354;48.174;11.566;2023-02-01T15:10:43;5.18;;;2.53;;
25419;SDS011;13354;48.174;11.566;2023-02-01T15:13:21;7.50;;;2.50;;
25419;SDS011;13354;48.174;11.566;2023-02-01T15:16:02;6.97;;;2.35;;
25419;SDS011;13354;48.174;11.566;2023-02-01T15:18:35;6.80;;;2.25;;
25419;SDS011;13354;48.174;11.566;2023-02-01T15:21:02;5.10;;;2.28;;
25419;SDS011;13354;48.174;11.566;2023-02-01T15:23:30;5.07;;;2.65;;
25419;SDS011;13354;48.174;11.566;2023-02-01T15:25:56;6.88;;;2.60;;
25419;SDS011;13354;48.174;11.566;2023-02-01T15:28:22;9.80;;;2.70;;
25419;SDS011;13354;48.174;11.566;2023-02-01T15:30:58;6.07;;;2.50;;
25419;SDS011;13354;48.174;11.566;2023-02-01T15:33:26;7.10;;;2.60;;
25419;SDS011;13354;48.174;11.566;2023-02-01T15:35:53;7.72;;;2.50;;
25419;SDS011;13354;48.174;11.566;2023-02-01T15:43:34;5.65;;;2.10;;
25419;SDS011;13354;48.174;11.566;2023-02-01T15:46:24;6.75;;;2.60;;
25419;SDS011;13354;48.174;11.566;2023-02-01T15:48:57;10.07;;;2.53;;
25419;SDS011;13354;48.174;11.566;2023-02-01T15:51:23;4.55;;;2.40;;
25419;SDS011;13354;48.174;11.566;2023-02-01T15:54:00;4.97;;;2.40;;
25419;SDS011;13354;48.174;11.566;2023-02-01T15:56:32;4.30;;;2.15;;
25419;SDS011;13354;48.174;11.566;2023-02-01T15:59:01;5.97;;;2.00;;
25419;SDS011;13354;48.174;11.566;2023-02-01T16:01:29;6.65;;;2.30;;
25419;SDS011;13354;48.174;11.566;2023-02-01T16:04:18;5.90;;;2.17;;
25419;SDS011;13354;48.174;11.566;2023-02-01T16:06:45;6.20;;;2.10;;
25419;SDS011;13354;48.174;11.566;2023-02-01T16:09:13;7.70;;;2.25;;
25419;SDS011;13354;48.174;11.566;2023-02-01T16:11:42;10.13;;;2.50;;
25419;SDS011;13354;48.174;11.566;2023-02-01T16:14:20;7.78;;;2.55;;
25419;SDS011;13354;48.174;11.566;2023-02-01T16:16:45;6.15;;;2.40;;
25419;SDS011;13354;48.174;11.566;2023-02-01T16:19:11;4.53;;;2.10;;
25419;SDS011;13354;48.174;11.566;2023-02-01T16:21:36;7.18;;;2.40;;
25419;SDS011;13354;48.174;11.566;2023-02-01T16:24:01;7.95;;;1.92;;
25419;SDS011;13354;48.174;11.566;2023-02-01T16:26:29;5.65;;;2.10;;
25419;SDS011;13354;48.174;11.566;2023-02-01T16:28:56;4.90;;;1.98;;
25419;SDS011;13354;48.174;11.566;2023-02-01T16:31:25;5.93;;;2.40;;
25419;SDS011;13354;48.174;11.566;2023-02-01T16:33:56;7.33;;;2.33;;
25419;SDS011;13354;48.174;11.566;2023-02-01T16:36:22;3.65;;;1.98;;
25419;SDS011;13354;48.174;11.566;2023-02-01T16:38:48;4.60;;;1.85;;
25419;SDS011;13354;48.174;11.566;2023-02-01T16:41:15;6.25;;;2.15;;
25419;SDS011;13354;48.174;11.566;2023-02-01T16:43:42;7.50;;;2.20;;
25419;SDS011;13354;48.174;11.566;2023-02-01T16:46:12;4.50;;;1.75;;
25419;SDS011;13354;48.174;11.566;2023-02-01T16:48:40;5.75;;;2.13;;
25419;SDS011;13354;48.174;11.566;2023-02-01T16:51:08;9.27;;;2.22;;
25419;SDS011;13354;48.174;11.566;2023-02-01T16:53:36;5.85;;;1.77;;
25419;SDS011;13354;48.174;11.566;2023-02-01T16:56:01;10.00;;;2.70;;
25419;SDS011;13354;48.174;11.566;2023-02-01T16:58:28;4.40;;;2.20;;
25419;SDS011;13354;48.174;11.566;2023-02-01T17:00:53;8.05;;;2.50;;
25419;SDS011;13354;48.174;11.566;2023-02-01T17:03:20;4.82;;;2.35;;
25419;SDS011;13354;48.174;11.566;2023-02-01T17:05:52;6.55;;;2.75;;
25419;SDS011;13354;48.174;11.566;2023-02-01T17:08:26;9.52;;;2.50;;
25419;SDS011;13354;48.174;11.566;2023-02-01T17:10:54;4.40;;;2.08;;
25419;SDS011;13354;48.174;11.566;2023-02-01T17:13:20;3.88;;;2.25;;
25419;SDS011;13354;48.174;11.566;2023-02-01T17:15:48;8.15;;;2.40;;
25419;SDS011;13354;48.174;11.566;2023-02-01T17:18:16;5.00;;;2.50;;
25419;SDS011;13354;48.174;11.566;2023-02-01T17:20:43;9.88;;;2.40;;
25419;SDS011;13354;48.174;11.566;2023-02-01T17:23:08;8.77;;;2.78;;
25419;SDS011;13354;48.174;11.566;2023-02-01T17:25:34;6.75;;;2.78;;
25419;SDS011;13354;48.174;11.566;2023-02-01T17:27:59;7.43;;;2.50;;
25419;SDS011;13354;48.174;11.566;2023-02-01T17:30:25;9.00;;;2.30;;
25419;SDS011;13354;48.174;11.566;2023-02-01T17:32:51;8.15;;;2.50;;
25419;SDS011;13354;48.174;11.566;2023-02-01T17:35:20;8.32;;;3.10;;
25419;SDS011;13354;48.174;11.566;2023-02-01T17:37:48;6.85;;;2.05;;